Time;durP1;ratioP1;P1;durP2;ratioP2;P2;SDS_P1;SDS_P2;PMS_P1;PMS_P2;Temp;Humidity;BMP_temperature;BMP_pressure;BME280_temperature;BME280_humidity;BME280_pressure;Samples;Min_cycle;Max_cycle;Signal;HPM_P1;HPM_P2
2023/06/15 00:01:04;;;;;;;5.97;5.22;;;;;;;17.75;56.12;101741.03;4842582;29;20065;-69
2023/06/15 00:03:30;;;;;;;5.60;5.07;;;;;;;17.75;55.89;101744.53;4842165;29;20076;-69
2023/06/15 00:05:56;;;;;;;5.72;5.22;;;;;;;17.71;56.66;101740.09;4840793;29;20029;-69
2023/06/15 00:08:21;;;;;;;6.25;5.70;;;;;;;17.68;56.45;101738.34;4842399;29;20044;-70
2023/06/15 00:10:47;;;;;;;6.28;5.57;;;;;;;17.64;56.69;101728.66;5055252;23;20068;-77
2023/06/15 00:13:13;;;;;;;6.47;5.88;;;;;;;17.58;56.65;101740.88;5054958;23;20057;-77
2023/06/15 00:18:08;;;;;;;6.63;5.32;;;;;;;17.55;57.37;101741.72;4906894;23;20072;-77
2023/06/15 00:20:34;;;;;;;5.85;5.22;;;;;;;17.58;57.11;101740.88;4980775;23;21885;-77
2023/06/15 00:23:00;;;;;;;7.20;5.20;;;;;;;17.44;58.72;101746.91;4854774;29;20045;-77
2023/06/15 00:28:01;;;;;;;6.63;5.30;;;;;;;17.24;59.46;101744.06;5005901;23;20068;-78
2023/06/15 00:30:26;;;;;;;6.18;5.30;;;;;;;17.07;60.19;101743.00;5044067;23;20157;-77
2023/06/15 00:35:30;;;;;;;6.88;6.15;;;;;;;16.75;61.20;101746.13;5079820;23;20032;-77
2023/06/15 00:37:56;;;;;;;6.55;5.95;;;;;;;16.58;61.27;101751.16;4965211;23;20052;-77
2023/06/15 00:40:21;;;;;;;6.75;6.03;;;;;;;16.60;61.33;101755.56;5014726;23;20070;-77
2023/06/15 00:45:18;;;;;;;5.78;5.28;;;;;;;16.74;60.97;101761.00;4844637;29;20054;-77
2023/06/15 00:47:45;;;;;;;5.72;5.18;;;;;;;16.81;60.63;101754.94;5059677;23;20050;-76
2023/06/15 00:50:18;;;;;;;5.70;5.20;;;;;;;16.83;60.30;101755.00;5018949;23;20053;-77
2023/06/15 00:55:13;;;;;;;6.00;5.45;;;;;;;16.91;59.95;101763.00;4956791;23;20057;-77
2023/06/15 00:57:44;;;;;;;6.22;5.18;;;;;;;16.92;59.55;101763.03;5122345;23;20063;-77
2023/06/15 01:00:15;;;;;;;5.90;5.40;;;;;;;16.92;59.87;101756.88;4980018;23;20080;-77
2023/06/15 01:02:41;;;;;;;6.32;5.55;;;;;;;16.85;59.73;101754.13;5002714;23;20480;-78
2023/06/15 01:05:10;;;;;;;5.82;5.30;;;;;;;16.86;60.04;101758.53;4852408;29;20049;-77
2023/06/15 01:10:02;;;;;;;6.15;5.65;;;;;;;16.49;62.41;101755.41;5100075;23;20671;-78
2023/06/15 01:12:29;;;;;;;6.60;5.65;;;;;;;16.48;61.71;101758.94;5043199;23;20489;-77
2023/06/15 01:17:30;;;;;;;6.68;5.28;;;;;;;16.52;61.43;101749.31;4840794;23;20133;-77
2023/06/15 01:20:03;;;;;;;5.57;5.07;;;;;;;16.51;61.88;101751.06;4836970;29;20061;-77
2023/06/15 01:27:49;;;;;;;5.90;5.30;;;;;;;16.51;61.36;101761.59;5117618;23;20061;-77
2023/06/15 01:30:15;;;;;;;6.05;5.45;;;;;;;16.50;61.17;101759.81;5011555;23;20038;-77
2023/06/15 01:37:41;;;;;;;6.45;5.85;;;;;;;16.33;62.76;101759.56;4894468;23;21805;-78
2023/06/15 01:40:07;;;;;;;6.10;5.50;;;;;;;16.29;62.85;101767.41;5119986;23;20509;-77
2023/06/15 01:42:33;;;;;;;6.68;5.80;;;;;;;16.29;62.67;101764.78;4934123;23;20084;-77
2023/06/15 01:44:59;;;;;;;7.18;5.57;;;;;;;16.29;62.50;101770.03;4861348;29;20037;-77
2023/06/15 01:47:26;;;;;;;5.47;4.97;;;;;;;16.28;62.45;101768.25;4862523;29;20067;-78
2023/06/15 01:49:52;;;;;;;5.97;5.47;;;;;;;16.27;62.72;101771.78;4862286;29;20789;-77
2023/06/15 01:52:17;;;;;;;6.30;5.70;;;;;;;16.23;63.20;101773.44;4998397;23;20138;-77
2023/06/15 01:54:43;;;;;;;6.07;5.57;;;;;;;16.19;63.20;101774.25;4917003;23;21185;-77
2023/06/15 01:57:08;;;;;;;5.88;5.28;;;;;;;16.15;63.46;101775.97;4901195;23;20037;-77
2023/06/15 01:59:33;;;;;;;5.90;5.40;;;;;;;16.10;63.79;101761.84;4971873;23;20068;-77
2023/06/15 02:01:58;;;;;;;6.20;5.70;;;;;;;16.00;63.66;101765.22;4863653;23;20047;-77
2023/06/15 02:04:24;;;;;;;6.88;6.18;;;;;;;15.74;64.77;101765.66;5127603;23;20061;-78
2023/06/15 02:06:49;;;;;;;7.38;6.78;;;;;;;15.58;65.70;101763.59;4862192;29;20140;-77
2023/06/15 02:09:15;;;;;;;7.22;6.28;;;;;;;15.61;65.25;101761.03;4987675;23;20518;-77
2023/06/15 02:11:41;;;;;;;6.63;5.82;;;;;;;15.67;65.12;101774.28;5109124;23;20084;-77
2023/06/15 02:16:38;;;;;;;6.20;5.50;;;;;;;15.75;64.64;101766.53;4967673;23;20090;-70
2023/06/15 02:19:04;;;;;;;7.18;6.05;;;;;;;15.77;65.05;101770.97;4853410;29;20033;-70
2023/06/15 02:21:30;;;;;;;5.93;5.40;;;;;;;15.74;64.87;101770.00;5026114;23;20049;-77
2023/06/15 02:23:55;;;;;;;6.13;5.45;;;;;;;15.69;65.07;101767.31;4855417;29;20040;-78
2023/06/15 02:26:21;;;;;;;6.00;5.40;;;;;;;15.69;65.08;101769.06;4856503;29;20056;-78
2023/06/15 02:28:46;;;;;;;6.38;5.78;;;;;;;15.67;65.01;101774.28;4858855;29;20038;-78
2023/06/15 02:31:11;;;;;;;6.25;5.40;;;;;;;15.65;65.31;101779.47;4860556;29;20489;-77
2023/06/15 02:33:37;;;;;;;5.50;5.00;;;;;;;15.65;65.13;101781.22;4857386;29;20056;-78
2023/06/15 02:36:03;;;;;;;6.60;5.45;;;;;;;15.58;65.25;101785.50;4854629;29;20041;-77
2023/06/15 02:38:28;;;;;;;5.85;5.22;;;;;;;15.52;66.17;101784.50;4856952;29;20060;-77
2023/06/15 02:40:53;;;;;;;6.57;5.97;;;;;;;15.45;66.50;101787.03;4857097;29;20444;-77
2023/06/15 02:43:19;;;;;;;6.60;5.95;;;;;;;15.34;67.40;101795.53;4855461;29;20029;-77
2023/06/15 02:45:44;;;;;;;6.35;5.40;;;;;;;15.30;67.25;101791.97;4857132;29;20389;-77
2023/06/15 02:48:09;;;;;;;5.75;5.20;;;;;;;15.29;66.97;101795.44;4858236;29;20035;-77
2023/06/15 02:50:35;;;;;;;5.95;5.35;;;;;;;15.33;66.79;101796.41;4855898;29;20535;-77
2023/06/15 02:53:00;;;;;;;6.60;6.00;;;;;;;15.27;67.89;101791.94;4858719;29;20116;-78
2023/06/15 02:55:26;;;;;;;7.28;6.57;;;;;;;15.18;68.19;101799.59;4855708;29;20044;-77
2023/06/15 02:57:52;;;;;;;6.07;5.53;;;;;;;15.18;67.66;101794.34;4859677;29;20117;-77
2023/06/15 03:00:18;;;;;;;6.20;5.60;;;;;;;15.18;67.70;101796.97;4856414;29;20080;-78
2023/06/15 03:02:44;;;;;;;6.07;5.50;;;;;;;15.08;68.72;101795.94;4859721;29;20033;-77
2023/06/15 03:05:11;;;;;;;7.32;6.53;;;;;;;15.01;68.99;101800.16;4854892;29;20429;-77
2023/06/15 03:07:36;;;;;;;7.45;6.80;;;;;;;14.84;69.54;101797.16;4859585;29;20471;-70
2023/06/15 03:10:02;;;;;;;7.43;6.75;;;;;;;14.66;70.49;101797.66;4862124;29;20695;-70
2023/06/15 03:12:27;;;;;;;7.65;6.95;;;;;;;14.60;70.93;101792.25;4859541;29;20029;-70
2023/06/15 03:14:53;;;;;;;7.72;6.70;;;;;;;14.52;71.09;101797.31;4858521;29;20112;-70
2023/06/15 03:17:21;;;;;;;12.05;7.25;;;;;;;14.48;71.43;101795.47;4860944;29;20096;-70
2023/06/15 03:19:47;;;;;;;8.32;6.93;;;;;;;14.37;72.03;101795.25;4862272;29;20026;-70
2023/06/15 03:22:13;;;;;;;10.20;7.60;;;;;;;14.33;72.67;101798.63;4838032;29;20049;-70
2023/06/15 03:24:42;;;;;;;11.50;6.93;;;;;;;14.39;72.62;101797.91;4856602;29;20082;-70
2023/06/15 03:27:09;;;;;;;10.48;6.60;;;;;;;14.47;72.01;101795.44;4845075;29;20497;-70
2023/06/15 03:29:36;;;;;;;9.93;7.60;;;;;;;14.51;72.07;101800.81;4842891;29;20113;-70
2023/06/15 03:32:08;;;;;;;11.18;7.43;;;;;;;14.55;71.73;101807.00;4839574;29;20089;-70
2023/06/15 03:34:35;;;;;;;15.32;7.40;;;;;;;14.53;72.01;101800.84;4843817;29;20032;-70
2023/06/15 03:37:01;;;;;;;10.48;6.75;;;;;;;14.58;71.85;101804.44;4842722;29;20044;-70
2023/06/15 03:39:26;;;;;;;11.95;6.78;;;;;;;14.62;71.28;101801.06;4840397;29;20053;-70
2023/06/15 03:41:51;;;;;;;9.82;7.30;;;;;;;14.63;71.60;101801.94;4840169;29;20045;-70
2023/06/15 03:44:17;;;;;;;8.70;6.18;;;;;;;14.63;71.62;101796.69;4839968;29;20048;-70
2023/06/15 03:46:44;;;;;;;13.60;6.80;;;;;;;14.65;71.65;101795.00;4840781;29;20171;-70
2023/06/15 03:49:10;;;;;;;13.73;6.70;;;;;;;14.66;71.67;101796.78;4843279;29;20117;-70
2023/06/15 03:51:37;;;;;;;18.00;8.20;;;;;;;14.53;72.54;101795.59;4841585;29;20086;-70
2023/06/15 03:54:02;;;;;;;12.80;7.47;;;;;;;14.53;72.19;101798.22;4844841;29;20030;-70
2023/06/15 03:56:27;;;;;;;10.70;7.53;;;;;;;14.55;72.18;101799.13;4843516;29;20097;-70
2023/06/15 03:58:53;;;;;;;15.48;7.15;;;;;;;14.59;71.81;101799.22;4843246;29;20029;-70
2023/06/15 04:01:19;;;;;;;11.10;7.18;;;;;;;14.64;71.40;101804.59;4840843;29;20065;-70
2023/06/15 04:03:45;;;;;;;15.20;7.40;;;;;;;14.68;71.64;101806.44;4843597;29;20034;-70
2023/06/15 04:06:11;;;;;;;11.15;8.02;;;;;;;14.46;73.06;101801.56;4843069;29;20026;-70
2023/06/15 04:08:37;;;;;;;12.00;8.35;;;;;;;14.07;75.22;101801.50;4842787;29;20040;-70
2023/06/15 04:11:02;;;;;;;10.07;9.02;;;;;;;13.87;76.37;101811.47;4844927;29;20041;-70
2023/06/15 04:13:28;;;;;;;10.25;8.65;;;;;;;13.88;76.38;101809.78;4843692;29;20038;-70
2023/06/15 04:15:53;;;;;;;9.80;8.73;;;;;;;13.84;76.90;101807.91;4844046;29;20405;-70
2023/06/15 04:18:20;;;;;;;9.93;8.65;;;;;;;13.80;77.13;101819.16;4839820;29;20535;-70
2023/06/15 04:20:45;;;;;;;9.88;8.90;;;;;;;13.82;77.05;101815.75;4840365;29;20125;-70
2023/06/15 04:23:11;;;;;;;10.82;9.30;;;;;;;13.91;76.77;101821.19;4839102;29;20030;-70
2023/06/15 04:25:37;;;;;;;9.80;8.48;;;;;;;13.91;77.19;101818.56;4842161;29;20057;-70
2023/06/15 04:28:05;;;;;;;10.07;9.18;;;;;;;13.94;77.44;101820.41;4844876;29;20041;-70
2023/06/15 04:30:31;;;;;;;12.30;11.17;;;;;;;13.84;77.59;101823.63;4841446;29;20120;-70
2023/06/15 04:33:04;;;;;;;11.80;10.70;;;;;;;13.74;78.56;101828.66;4839070;29;20148;-70
2023/06/15 04:35:31;;;;;;;12.35;10.98;;;;;;;13.71;78.84;101827.66;4832564;29;20387;-70
2023/06/15 04:37:58;;;;;;;12.48;11.25;;;;;;;13.74;79.48;101833.88;4832282;29;20102;-70
2023/06/15 04:40:26;;;;;;;11.93;10.75;;;;;;;13.89;78.97;101830.75;4835228;29;20052;-70
2023/06/15 04:42:53;;;;;;;11.43;10.40;;;;;;;14.04;79.41;101832.88;4834309;29;20030;-70
2023/06/15 04:45:18;;;;;;;11.73;10.63;;;;;;;14.12;78.90;101834.81;4835360;29;20064;-70
2023/06/15 04:47:44;;;;;;;11.70;10.65;;;;;;;14.19;78.73;101827.16;4838570;29;20061;-70
2023/06/15 04:50:13;;;;;;;11.40;10.30;;;;;;;14.31;77.96;101831.81;4831435;29;20041;-70
2023/06/15 04:52:38;;;;;;;11.30;10.23;;;;;;;14.41;77.01;101838.13;4830748;29;20022;-70
2023/06/15 04:55:04;;;;;;;11.57;10.57;;;;;;;14.52;76.68;101833.16;4830780;29;20089;-70
2023/06/15 04:57:29;;;;;;;11.27;10.18;;;;;;;14.63;76.83;101847.44;4830452;29;20041;-70
2023/06/15 04:59:55;;;;;;;11.15;10.15;;;;;;;14.70;75.85;101846.72;4834053;29;20022;-70
2023/06/15 05:02:20;;;;;;;11.43;10.45;;;;;;;14.78;75.36;101845.16;4830693;29;20114;-70
2023/06/15 05:04:46;;;;;;;12.50;11.27;;;;;;;14.86;75.75;101847.97;4832070;29;20038;-70
2023/06/15 05:07:11;;;;;;;12.57;11.48;;;;;;;14.92;76.46;101847.22;4840911;29;20978;-70
2023/06/15 05:09:37;;;;;;;12.38;11.23;;;;;;;14.97;76.17;101842.06;4839484;29;20065;-70
2023/06/15 05:12:02;;;;;;;13.35;12.15;;;;;;;14.97;77.28;101850.81;4839842;29;20032;-70
2023/06/15 05:14:28;;;;;;;13.65;12.30;;;;;;;15.01;76.38;101851.78;4846419;29;20498;-70
2023/06/15 05:16:53;;;;;;;13.93;12.82;;;;;;;15.07;76.67;101846.66;4842480;29;20090;-70
2023/06/15 05:19:20;;;;;;;14.57;13.15;;;;;;;15.14;76.75;101853.78;4835557;29;20493;-70
2023/06/15 05:21:49;;;;;;;13.85;12.65;;;;;;;15.17;76.37;101858.25;4837896;29;20057;-70
2023/06/15 05:24:14;;;;;;;;;;;;;;;15.24;74.39;101852.25;4837902;29;20414;-70
2023/06/15 05:26:40;;;;;;;13.15;12.05;;;;;;;15.27;75.68;101847.06;4838792;29;19931;-71
2023/06/15 05:29:06;;;;;;;14.05;12.68;;;;;;;15.31;76.06;101851.53;4836450;29;20079;-70
2023/06/15 05:31:32;;;;;;;14.40;13.20;;;;;;;15.36;74.97;101847.25;4840832;29;20045;-70
2023/06/15 05:33:57;;;;;;;14.00;12.80;;;;;;;15.42;75.44;101849.97;4837867;29;20045;-70
2023/06/15 05:36:25;;;;;;;14.38;13.02;;;;;;;15.48;75.58;101855.38;4832127;29;20044;-70
2023/06/15 05:38:51;;;;;;;13.98;12.77;;;;;;;15.54;75.43;101854.63;4839800;29;20037;-70
2023/06/15 05:41:16;;;;;;;14.52;13.20;;;;;;;15.60;74.75;101856.47;4833874;29;20038;-70
2023/06/15 05:43:41;;;;;;;14.60;13.30;;;;;;;15.70;75.21;101866.28;4830952;29;20036;-70
2023/06/15 05:46:07;;;;;;;15.68;14.15;;;;;;;15.76;74.73;101862.91;4839197;29;20402;-70
2023/06/15 05:48:32;;;;;;;14.88;13.57;;;;;;;15.86;74.14;101861.34;4843892;29;20425;-70
2023/06/15 05:50:57;;;;;;;15.50;14.10;;;;;;;15.95;74.21;101864.16;4842878;29;20037;-70
2023/06/15 05:53:22;;;;;;;14.85;13.18;;;;;;;16.06;73.19;101859.06;4841454;29;20113;-70
2023/06/15 05:55:48;;;;;;;14.35;13.07;;;;;;;16.15;74.11;101860.13;4843284;29;20486;-70
2023/06/15 05:58:13;;;;;;;12.73;11.63;;;;;;;16.30;72.31;101858.59;4841396;29;20049;-70
2023/06/15 06:00:38;;;;;;;13.98;11.93;;;;;;;16.44;72.68;101857.06;4840914;29;20551;-70
2023/06/15 06:03:04;;;;;;;12.70;11.63;;;;;;;16.55;71.81;101858.97;4842587;29;20026;-70
2023/06/15 06:05:30;;;;;;;13.07;11.85;;;;;;;16.68;70.44;101855.66;4842465;29;20026;-71
2023/06/15 06:07:55;;;;;;;12.10;10.93;;;;;;;16.80;69.28;101850.59;4841727;29;20061;-71
2023/06/15 06:10:20;;;;;;;12.20;11.20;;;;;;;16.98;70.19;101857.88;4840111;29;20037;-70
2023/06/15 06:12:46;;;;;;;12.82;11.63;;;;;;;17.04;70.30;101850.06;4838952;29;20402;-70
2023/06/15 06:15:11;;;;;;;12.70;11.50;;;;;;;17.10;70.30;101845.75;4841135;29;20492;-71
2023/06/15 06:17:36;;;;;;;12.50;11.40;;;;;;;17.19;70.40;101849.38;4836181;29;20087;-71
2023/06/15 06:20:03;;;;;;;12.68;11.63;;;;;;;17.29;69.69;101853.03;4835627;29;20052;-70
2023/06/15 06:22:28;;;;;;;11.10;10.05;;;;;;;17.46;67.56;101853.19;4831863;29;20061;-71
2023/06/15 06:24:54;;;;;;;11.48;10.48;;;;;;;17.65;67.38;101853.41;4836625;29;20156;-71
2023/06/15 06:27:19;;;;;;;12.32;11.23;;;;;;;17.81;65.74;101852.69;4842015;29;20128;-71
2023/06/15 06:29:44;;;;;;;11.40;9.90;;;;;;;17.98;65.13;101847.59;4836555;29;20029;-71
2023/06/15 06:32:10;;;;;;;11.63;10.52;;;;;;;18.06;65.06;101845.94;4840560;29;20379;-72
2023/06/15 06:34:35;;;;;;;9.10;8.20;;;;;;;18.19;62.05;101846.91;4856141;23;20622;-94
2023/06/15 06:37:05;;;;;;;11.38;10.27;;;;;;;18.35;64.09;101847.00;4860433;29;20041;-95
2023/06/15 06:39:30;;;;;;;;;;;;;;;18.44;64.62;101847.09;4861944;29;20088;-94
2023/06/15 06:41:55;;;;;;;10.77;9.60;;;;;;;18.52;64.99;101850.66;4867192;29;19919;-95
2023/06/15 06:44:21;;;;;;;6.95;6.25;;;;;;;18.63;59.75;101848.09;4867729;29;20037;-94
2023/06/15 06:46:46;;;;;;;10.38;9.32;;;;;;;18.83;65.60;101858.78;4870738;29;20116;-95
2023/06/15 06:49:12;;;;;;;11.40;10.20;;;;;;;18.91;64.03;101854.44;4863157;29;20111;-95
2023/06/15 06:51:38;;;;;;;10.65;9.60;;;;;;;19.06;66.16;101852.75;4864914;29;20117;-93
2023/06/15 06:54:03;;;;;;;11.13;9.98;;;;;;;19.17;62.15;101858.09;4870105;29;20033;-94
2023/06/15 06:56:28;;;;;;;11.10;10.07;;;;;;;19.29;62.58;101861.69;4865590;29;20030;-94
2023/06/15 06:58:54;;;;;;;10.15;9.18;;;;;;;19.45;62.66;101862.63;4865903;29;20637;-94
2023/06/15 07:01:19;;;;;;;10.38;9.38;;;;;;;19.53;62.62;101862.63;4862615;29;20125;-94
2023/06/15 07:03:45;;;;;;;10.65;9.65;;;;;;;19.66;63.34;101860.91;4869589;29;20528;-94
2023/06/15 07:06:11;;;;;;;11.63;8.88;;;;;;;19.85;63.11;101855.69;4867075;29;20054;-95
2023/06/15 07:08:36;;;;;;;8.55;7.75;;;;;;;19.91;61.10;101853.91;4869928;29;20029;-95
2023/06/15 07:11:02;;;;;;;8.90;8.10;;;;;;;20.11;64.91;101856.56;4865022;29;20104;-95
2023/06/15 07:13:27;;;;;;;8.20;7.22;;;;;;;20.28;62.84;101855.69;4861530;29;20050;-94
2023/06/15 07:15:57;;;;;;;8.68;7.72;;;;;;;20.36;62.07;101855.69;4864487;29;20036;-95
2023/06/15 07:18:25;;;;;;;8.25;7.45;;;;;;;20.51;59.12;101850.38;4872699;29;20029;-96
2023/06/15 07:20:54;;;;;;;8.68;7.70;;;;;;;20.55;57.03;101852.13;4873184;23;20068;-72
2023/06/15 07:23:24;;;;;;;10.55;8.02;;;;;;;20.62;57.14;101855.63;4858569;29;20492;-72
2023/06/15 07:25:51;;;;;;;7.22;6.53;;;;;;;20.69;56.33;101853.91;4847663;29;20063;-71
2023/06/15 07:28:16;;;;;;;7.38;6.65;;;;;;;20.80;57.43;101853.00;4847661;29;21587;-72
2023/06/15 07:30:43;;;;;;;6.05;5.45;;;;;;;20.96;54.89;101855.59;4847811;29;20392;-71
2023/06/15 07:33:09;;;;;;;6.47;4.88;;;;;;;21.08;53.86;101855.53;4847376;29;20029;-71
2023/06/15 07:35:35;;;;;;;6.05;4.53;;;;;;;21.20;52.89;101865.19;4846863;29;20039;-71
2023/06/15 07:38:00;;;;;;;6.55;4.00;;;;;;;21.42;53.21;101870.41;4846650;29;20029;-72
2023/06/15 07:40:25;;;;;;;5.07;4.13;;;;;;;21.44;51.98;101866.00;4847116;29;20033;-73
2023/06/15 07:42:50;;;;;;;5.43;4.88;;;;;;;21.47;50.11;101858.03;4844855;29;20038;-73
2023/06/15 07:45:16;;;;;;;6.72;4.30;;;;;;;21.60;50.35;101856.22;4946988;23;20053;-79
2023/06/15 07:47:41;;;;;;;6.10;4.30;;;;;;;21.68;48.23;101857.94;4868322;29;21015;-72
2023/06/15 07:50:07;;;;;;;5.18;3.50;;;;;;;21.79;50.78;101854.31;4868745;29;20034;-72
2023/06/15 07:52:32;;;;;;;7.85;4.35;;;;;;;21.88;51.56;101862.19;4867124;29;20032;-72
2023/06/15 07:54:58;;;;;;;8.82;3.88;;;;;;;22.01;49.90;101844.41;4869573;29;20029;-72
2023/06/15 07:57:23;;;;;;;5.18;3.42;;;;;;;22.16;49.06;101854.00;4865689;29;20094;-72
2023/06/15 07:59:48;;;;;;;4.57;3.00;;;;;;;22.32;48.43;101855.69;4865938;29;20062;-72
2023/06/15 08:02:14;;;;;;;4.78;3.70;;;;;;;22.45;47.60;101856.47;4866395;29;20064;-72
2023/06/15 08:04:39;;;;;;;4.40;3.28;;;;;;;22.42;45.90;101848.53;4866373;29;20025;-72
2023/06/15 08:07:05;;;;;;;5.55;3.58;;;;;;;22.56;47.15;101859.91;4865085;29;20437;-73
2023/06/15 08:09:30;;;;;;;4.72;3.63;;;;;;;22.69;47.01;101852.66;4866211;29;20029;-72
2023/06/15 08:11:56;;;;;;;5.53;3.60;;;;;;;22.73;44.44;101856.16;4864454;29;20017;-73
2023/06/15 08:14:22;;;;;;;4.63;3.35;;;;;;;22.85;45.88;101863.13;4864712;29;20130;-72
2023/06/15 08:16:47;;;;;;;4.88;2.92;;;;;;;23.06;44.34;101856.69;4864196;29;20497;-72
2023/06/15 08:19:13;;;;;;;4.57;3.40;;;;;;;23.09;42.17;101860.16;4864102;29;20651;-72
2023/06/15 08:21:41;;;;;;;4.85;3.50;;;;;;;23.18;43.26;101861.00;4858343;29;20115;-72
2023/06/15 08:24:06;;;;;;;4.22;2.80;;;;;;;23.16;39.79;101860.13;4853850;29;20036;-72
2023/06/15 08:26:32;;;;;;;3.95;2.95;;;;;;;23.20;41.56;101854.75;4855941;29;20044;-72
2023/06/15 08:28:57;;;;;;;7.30;2.97;;;;;;;23.35;40.72;101859.00;4854901;29;20029;-72
2023/06/15 08:31:22;;;;;;;4.78;3.03;;;;;;;23.53;40.23;101859.63;4855987;29;21318;-72
2023/06/15 08:33:48;;;;;;;4.18;2.78;;;;;;;23.65;38.75;101869.22;4855298;29;20709;-72
2023/06/15 08:36:13;;;;;;;4.97;2.92;;;;;;;23.62;40.89;101864.81;4856064;29;20112;-72
2023/06/15 08:38:39;;;;;;;4.30;2.75;;;;;;;23.74;40.50;101859.31;4859637;29;20112;-72
2023/06/15 08:41:04;;;;;;;9.18;3.47;;;;;;;23.95;41.56;101857.25;4860521;29;20047;-72
2023/06/15 08:43:32;;;;;;;6.35;3.03;;;;;;;24.09;42.08;101855.25;4861339;29;20131;-72
2023/06/15 08:45:58;;;;;;;4.88;2.85;;;;;;;24.24;40.97;101854.09;4855970;29;20098;-72
2023/06/15 08:48:27;;;;;;;6.82;3.20;;;;;;;24.30;39.37;101858.44;4847366;29;20461;-71
2023/06/15 08:50:53;;;;;;;;;;;;;;;24.46;42.15;101851.03;4845485;29;20089;-71
2023/06/15 08:53:21;;;;;;;5.75;3.20;;;;;;;24.60;42.67;101851.69;4844651;29;19920;-72
2023/06/15 09:03:29;;;;;;;7.32;2.85;;;;;;;25.37;39.81;101854.59;5412435;23;20441;-68
2023/06/15 09:08:28;;;;;;;6.45;3.08;;;;;;;25.49;37.00;101853.44;4852456;29;20054;-64
2023/06/15 09:11:06;;;;;;;5.55;3.50;;;;;;;25.41;36.09;101853.63;4859535;29;20037;-64
2023/06/15 09:13:33;;;;;;;5.03;3.03;;;;;;;25.47;38.68;101855.28;4857243;29;20055;-62
2023/06/15 09:16:00;;;;;;;6.43;3.05;;;;;;;25.58;35.44;101847.03;4861509;29;20539;-62
2023/06/15 09:18:26;;;;;;;4.55;3.20;;;;;;;25.47;36.28;101856.16;5375908;23;20019;-62
2023/06/15 09:23:17;;;;;;;4.35;2.70;;;;;;;25.66;38.85;101840.63;5260872;23;20032;-62
2023/06/15 09:28:10;;;;;;;5.23;2.77;;;;;;;25.73;37.12;101845.81;5008728;23;20036;-62
2023/06/15 09:33:12;;;;;;;4.93;3.20;;;;;;;25.77;36.48;101852.84;4843010;29;20049;-62
2023/06/15 09:40:53;;;;;;;4.22;3.10;;;;;;;25.56;33.99;101846.19;4932591;23;20065;-62
2023/06/15 09:43:19;;;;;;;4.13;2.93;;;;;;;25.54;35.88;101842.69;5137770;23;20061;-63
2023/06/15 09:45:52;;;;;;;5.65;3.40;;;;;;;25.48;37.02;101846.38;4990827;23;20069;-62
2023/06/15 09:48:17;;;;;;;3.92;3.40;;;;;;;25.23;35.20;101846.00;5026779;23;20521;-62
2023/06/15 09:50:43;;;;;;;5.20;2.83;;;;;;;25.39;39.44;101844.78;5033374;23;20140;-65
2023/06/15 09:53:12;;;;;;;5.50;3.17;;;;;;;25.47;36.70;101840.13;4849491;29;20543;-64
2023/06/15 09:55:40;;;;;;;;;;;;;;;25.41;36.74;101848.28;4970089;23;20308;-62
2023/06/15 09:58:06;;;;;;;4.43;3.03;;;;;;;25.27;34.87;101843.22;5094450;23;20916;-62
2023/06/15 10:00:31;;;;;;;4.90;3.50;;;;;;;25.21;36.45;101847.84;5001572;23;20025;-62
2023/06/15 10:03:01;;;;;;;5.32;3.35;;;;;;;25.03;38.02;101843.75;4967644;23;21417;-62
2023/06/15 10:07:57;;;;;;;5.25;3.40;;;;;;;25.31;36.58;101847.63;4928431;23;20061;-62
2023/06/15 10:10:25;;;;;;;4.25;3.28;;;;;;;25.77;36.69;101842.16;5009565;23;20197;-61
2023/06/15 10:12:55;;;;;;;6.93;3.20;;;;;;;25.99;33.72;101837.16;4977533;23;20053;-61
2023/06/15 10:15:23;;;;;;;4.50;3.10;;;;;;;26.11;35.49;101839.53;5102961;23;20157;-62
2023/06/15 10:17:52;;;;;;;5.63;3.25;;;;;;;25.95;33.57;101838.13;4850260;29;20069;-66
2023/06/15 10:20:21;;;;;;;6.28;3.50;;;;;;;25.96;36.64;101842.56;4846824;29;20120;-66
2023/06/15 10:23:00;;;;;;;4.03;3.15;;;;;;;26.10;35.65;101839.56;4975209;23;20138;-62
2023/06/15 10:25:27;;;;;;;4.60;2.90;;;;;;;26.29;36.42;101829.31;4859659;29;20148;-62
2023/06/15 10:30:49;;;;;;;5.65;3.53;;;;;;;25.89;35.85;101835.63;4851909;29;20061;-62
2023/06/15 10:33:29;;;;;;;4.15;3.10;;;;;;;25.85;36.16;101843.72;5027531;23;20983;-62
2023/06/15 10:38:45;;;;;;;4.95;3.95;;;;;;;25.24;34.97;101845.09;5006196;23;20049;-61
2023/06/15 10:41:11;;;;;;;5.85;3.40;;;;;;;25.21;34.17;101847.84;5021202;23;21470;-61
2023/06/15 10:43:36;;;;;;;5.00;3.38;;;;;;;25.55;35.63;101841.75;4843355;29;20417;-62
2023/06/15 10:46:02;;;;;;;7.20;3.50;;;;;;;25.62;36.20;101828.25;4841304;29;20030;-61
2023/06/15 10:48:29;;;;;;;5.03;3.28;;;;;;;25.45;35.33;101839.31;4845993;29;20049;-61
2023/06/15 10:55:58;;;;;;;6.03;3.70;;;;;;;25.08;39.46;101832.06;4897053;23;20057;-61
2023/06/15 10:58:27;;;;;;;5.07;3.47;;;;;;;24.87;35.40;101837.84;4861738;29;20029;-66
2023/06/15 11:01:23;;;;;;;4.50;3.20;;;;;;;25.30;38.59;101832.50;4863545;29;20040;-66
2023/06/15 11:03:48;;;;;;;5.78;3.58;;;;;;;25.71;35.36;101836.94;4854259;29;20132;-66
2023/06/15 11:06:21;;;;;;;7.15;3.63;;;;;;;25.65;37.65;101832.63;4861286;29;20180;-66
2023/06/15 11:08:59;;;;;;;3.90;3.15;;;;;;;25.51;36.54;101832.97;4864871;29;20036;-66
2023/06/15 11:11:39;;;;;;;5.38;3.17;;;;;;;25.34;36.04;101825.34;4862512;29;20497;-66
2023/06/15 11:14:23;;;;;;;4.13;3.20;;;;;;;25.24;37.72;101829.94;4862694;29;20416;-66
2023/06/15 11:17:04;;;;;;;4.15;3.40;;;;;;;25.16;38.26;101835.47;4862393;29;20041;-66
2023/06/15 11:19:30;;;;;;;4.68;3.40;;;;;;;24.93;39.94;101833.28;4862538;29;20082;-66
2023/06/15 11:22:07;;;;;;;4.30;3.50;;;;;;;25.00;35.36;101834.06;4862897;29;20445;-66
2023/06/15 11:24:37;;;;;;;5.40;4.28;;;;;;;25.38;37.57;101828.81;4863086;29;20540;-66
2023/06/15 11:27:04;;;;;;;4.00;3.40;;;;;;;25.74;37.85;101826.19;4860915;29;20037;-66
2023/06/15 11:29:33;;;;;;;4.13;3.33;;;;;;;26.05;34.93;101829.00;4861206;29;20075;-62
2023/06/15 11:32:04;;;;;;;4.35;3.50;;;;;;;26.48;37.70;101819.84;4860880;29;20033;-61
2023/06/15 11:34:30;;;;;;;4.70;3.38;;;;;;;26.67;35.40;101822.03;4862191;29;20100;-61
2023/06/15 11:36:57;;;;;;;4.00;3.53;;;;;;;26.73;35.92;101816.53;4861636;29;20018;-62
2023/06/15 11:39:23;;;;;;;6.85;3.22;;;;;;;26.83;31.05;101818.00;4861509;29;20037;-62
2023/06/15 11:41:53;;;;;;;4.30;3.67;;;;;;;26.30;34.03;101806.97;4862940;29;20037;-62
2023/06/15 11:44:20;;;;;;;4.22;3.40;;;;;;;26.65;36.75;101805.13;4862016;29;20494;-62
2023/06/15 11:46:59;;;;;;;5.93;3.50;;;;;;;27.03;32.91;101811.22;4862772;29;20389;-61
2023/06/15 11:49:31;;;;;;;5.22;3.60;;;;;;;27.34;36.27;101813.81;4863961;29;20057;-62
2023/06/15 11:51:57;;;;;;;4.32;3.40;;;;;;;27.64;35.01;101803.06;4863626;29;20035;-62
2023/06/15 11:54:24;;;;;;;7.70;3.92;;;;;;;27.58;31.75;101806.81;4858402;29;20057;-62
2023/06/15 11:56:50;;;;;;;4.35;3.47;;;;;;;27.41;33.54;101803.81;4845153;29;20041;-62
2023/06/15 11:59:17;;;;;;;5.32;3.53;;;;;;;27.39;36.56;101809.22;4844182;29;20038;-62
2023/06/15 12:01:43;;;;;;;5.15;3.22;;;;;;;27.55;36.09;101796.22;4844885;29;20030;-61
2023/06/15 12:04:18;;;;;;;3.78;3.15;;;;;;;27.66;34.93;101801.19;4845128;29;20045;-62
2023/06/15 12:06:45;;;;;;;4.72;3.40;;;;;;;27.69;33.72;101802.91;4844598;29;20030;-62
2023/06/15 12:09:11;;;;;;;3.70;3.40;;;;;;;27.73;30.18;101791.19;4844933;29;20056;-62
2023/06/15 12:11:37;;;;;;;4.38;3.40;;;;;;;27.30;29.55;101796.09;4844714;29;20037;-61
2023/06/15 12:14:07;;;;;;;5.72;3.45;;;;;;;27.51;33.93;101786.53;4844248;29;20039;-62
2023/06/15 12:16:33;;;;;;;6.03;3.35;;;;;;;27.79;33.15;101788.28;4844448;29;20494;-61
2023/06/15 12:18:58;;;;;;;4.25;3.17;;;;;;;28.16;33.53;101780.84;4843762;29;20101;-62
2023/06/15 12:21:37;;;;;;;5.45;3.30;;;;;;;28.54;34.14;101784.78;4838749;29;21830;-61
2023/06/15 12:29:14;;;;;;;5.25;3.10;;;;;;;29.26;30.58;101783.88;4887803;23;21172;-66
2023/06/15 12:31:41;;;;;;;5.03;3.17;;;;;;;29.47;31.85;101778.56;4835644;29;20500;-66